createdAt,value
2023-02-22T00:02:51.161Z,100409.03
2023-02-22T00:06:24.394Z,100409.21
2023-02-22T00:09:24.219Z,100409.41
2023-02-22T00:12:29.788Z,100412.13
2023-02-22T00:15:28.750Z,100416.16
2023-02-22T00:18:41.612Z,100417.45
2023-02-22T00:21:47.101Z,100422.93
2023-02-22T00:24:38.050Z,100425.97
2023-02-22T00:27:23.292Z,100427.62
2023-02-22T00:30:16.775Z,100426.33
2023-02-22T00:33:33.354Z,100428.18
2023-02-22T00:37:08.661Z,100428.30
2023-02-22T00:41:07.712Z,100431.16
2023-02-22T00:44:20.165Z,100435.61
2023-02-22T00:47:08.686Z,100435.52
2023-02-22T00:50:07.657Z,100436.10
2023-02-22T00:52:59.788Z,100434.95
2023-02-22T00:56:26.189Z,100440.86
2023-02-22T00:59:13.290Z,100446.97
2023-02-22T01:02:01.284Z,100449.44
2023-02-22T01:04:54.716Z,100452.95
2023-02-22T01:07:55.966Z,100452.82
2023-02-22T01:11:12.941Z,100453.04
2023-02-22T01:14:09.802Z,100454.98
2023-02-22T01:17:10.433Z,100458.29
2023-02-22T01:22:30.144Z,100459.72
2023-02-22T01:23:03.797Z,100460.95
2023-02-22T01:25:50.795Z,100457.53
2023-02-22T01:29:10.462Z,100459.46
2023-02-22T01:32:24.027Z,100460.70
2023-02-22T01:35:23.555Z,100460.06
2023-02-22T01:38:07.483Z,100458.23
2023-02-22T01:44:24.750Z,100463.48
2023-02-22T01:47:32.551Z,100463.68
2023-02-22T01:50:53.069Z,100462.35
2023-02-22T01:54:19.006Z,100461.34
2023-02-22T01:57:32.518Z,100459.30
2023-02-22T02:00:19.788Z,100462.93
2023-02-22T02:03:41.452Z,100463.13
2023-02-22T02:06:44.767Z,100464.69
2023-02-22T02:10:10.099Z,100465.06
2023-02-22T02:13:15.263Z,100464.39
2023-02-22T02:16:05.928Z,100464.59
2023-02-22T02:19:02.322Z,100466.15
2023-02-22T02:22:41.047Z,100470.27
2023-02-22T02:26:35.859Z,100472.69
2023-02-22T02:29:39.114Z,100465.15
2023-02-22T02:32:52.232Z,100466.01
2023-02-22T02:35:48.605Z,100465.85
2023-02-22T02:38:54.433Z,100463.09
2023-02-22T02:41:33.813Z,100461.89
2023-02-22T02:44:12.561Z,100461.70
2023-02-22T02:47:00.470Z,100462.75
2023-02-22T02:49:46.966Z,100464.29
2023-02-22T02:52:18.212Z,100465.15
2023-02-22T02:54:51.617Z,100462.05
2023-02-22T02:57:52.893Z,100462.39
2023-02-22T03:00:54.685Z,100466.67
2023-02-22T03:04:15.182Z,100466.34
2023-02-22T03:07:24.787Z,100467.89
2023-02-22T03:10:54.992Z,100466.01
2023-02-22T03:13:52.045Z,100466.70
2023-02-22T03:16:29.443Z,100467.41
2023-02-22T03:19:56.101Z,100466.73
2023-02-22T03:23:23.734Z,100465.02
2023-02-22T03:26:44.605Z,100463.31
2023-02-22T03:30:17.544Z,100468.48
2023-02-22T03:33:35.987Z,100472.26
2023-02-22T03:37:14.234Z,100474.84
2023-02-22T03:47:30.816Z,100484.45
2023-02-22T03:51:15.566Z,100483.77
2023-02-22T03:54:30.402Z,100481.70
2023-02-22T03:57:29.768Z,100483.41
2023-02-22T04:00:33.419Z,100482.38
2023-02-22T04:03:42.905Z,100481.69
2023-02-22T04:07:21.839Z,100483.92
2023-02-22T04:10:26.012Z,100485.46
2023-02-22T04:13:07.360Z,100490.61
2023-02-22T04:15:40.283Z,100496.45
2023-02-22T04:18:13.781Z,100495.59
2023-02-22T04:20:44.379Z,100494.39
2023-02-22T04:23:34.387Z,100496.27
2023-02-22T04:26:25.853Z,100496.95
2023-02-22T04:29:41.101Z,100498.15
2023-02-22T04:33:15.320Z,100495.40
2023-02-22T04:37:27.937Z,100494.70
2023-02-22T04:41:20.477Z,100498.80
2023-02-22T04:43:57.663Z,100508.94
2023-02-22T04:46:58.992Z,100505.65
2023-02-22T04:49:47.850Z,100508.89
2023-02-22T04:52:50.008Z,100509.56
2023-02-22T04:56:24.008Z,100507.83
2023-02-22T04:59:13.628Z,100509.89
2023-02-22T05:02:17.747Z,100507.99
2023-02-22T05:05:30.543Z,100505.73
2023-02-22T05:08:13.070Z,100505.92
2023-02-22T05:11:14.815Z,100501.12
2023-02-22T05:17:15.860Z,100498.91
2023-02-22T05:20:03.393Z,100501.16
2023-02-22T05:23:07.858Z,100502.70
2023-02-22T05:25:57.767Z,100505.63
2023-02-22T05:29:16.464Z,100508.92
2023-02-22T05:32:09.220Z,100514.27
2023-02-22T05:38:46.387Z,100513.42
2023-02-22T05:45:28.630Z,100528.73
2023-02-22T05:48:46.660Z,100535.77
2023-02-22T05:52:27.518Z,100542.80
2023-02-22T05:55:20.136Z,100544.67
2023-02-22T05:58:08.176Z,100543.48
2023-02-22T06:04:54.112Z,100536.95
2023-02-22T06:08:47.156Z,100542.59
2023-02-22T06:11:49.948Z,100551.86
2023-02-22T06:14:57.742Z,100554.23
2023-02-22T06:18:36.272Z,100550.28
2023-02-22T06:22:24.399Z,100554.73
2023-02-22T06:25:58.610Z,100558.48
2023-02-22T06:29:52.937Z,100565.69
2023-02-22T06:33:51.164Z,100567.20
2023-02-22T06:37:00.037Z,100569.74
2023-02-22T06:40:05.284Z,100574.17
2023-02-22T06:43:27.270Z,100581.35
2023-02-22T06:56:29.922Z,100584.85
2023-02-22T06:59:32.014Z,100589.92
2023-02-22T07:02:48.570Z,100588.66
2023-02-22T07:06:10.855Z,100591.30
2023-02-22T07:09:20.050Z,100586.98
2023-02-22T07:12:51.547Z,100587.68
2023-02-22T07:19:48.770Z,100598.73
2023-02-22T07:22:48.128Z,100602.44
2023-02-22T07:26:19.872Z,100607.61
2023-02-22T07:29:13.085Z,100604.96
2023-02-22T07:32:20.905Z,100610.23
2023-02-22T07:36:04.035Z,100609.77
2023-02-22T07:38:32.590Z,100615.89
2023-02-22T07:44:57.342Z,100617.59
2023-02-22T07:48:17.285Z,100617.65
2023-02-22T07:52:04.580Z,100619.72
2023-02-22T07:55:06.747Z,100616.13
2023-02-22T07:57:42.195Z,100612.98
2023-02-22T08:00:50.422Z,100618.02
2023-02-22T08:03:39.485Z,100622.27
2023-02-22T08:06:57.093Z,100620.39
2023-02-22T08:10:11.687Z,100621.80
2023-02-22T08:13:01.771Z,100630.37
2023-02-22T08:16:13.446Z,100628.47
2023-02-22T08:19:34.207Z,100631.90
2023-02-22T08:22:32.866Z,100633.84
2023-02-22T08:26:35.052Z,100633.27
2023-02-22T08:29:42.240Z,100636.79
2023-02-22T08:33:07.010Z,100637.73
2023-02-22T08:36:13.441Z,100636.57
2023-02-22T08:39:35.376Z,100637.13
2023-02-22T08:47:04.382Z,100631.94
2023-02-22T08:49:57.484Z,100635.36
2023-02-22T08:57:12.911Z,100643.55
2023-02-22T09:05:56.210Z,100644.52
2023-02-22T09:54:25.283Z,100647.98
2023-02-22T10:36:16.899Z,100647.86
2023-02-22T10:39:51.898Z,100647.02
2023-02-22T10:52:52.235Z,100643.95
2023-02-22T10:56:42.791Z,100641.94
2023-02-22T11:00:40.594Z,100640.08
2023-02-22T11:06:24.444Z,100641.72
2023-02-22T11:09:00.592Z,100642.20
2023-02-22T11:12:44.616Z,100642.92
2023-02-22T11:15:52.440Z,100645.89
2023-02-22T11:19:23.314Z,100640.42
2023-02-22T11:36:53.786Z,100633.64
2023-02-22T11:40:29.279Z,100633.16
2023-02-22T11:43:22.800Z,100629.61
2023-02-22T11:47:02.034Z,100625.91
2023-02-22T11:51:20.235Z,100623.21
2023-02-22T11:55:49.237Z,100623.44
2023-02-22T11:59:29.447Z,100624.12
2023-02-22T12:09:30.728Z,100616.62
2023-02-22T12:13:07.875Z,100618.64
2023-02-22T12:19:40.056Z,100617.92
2023-02-22T12:44:17.882Z,100623.68
2023-02-22T12:46:56.498Z,100621.35
2023-02-22T12:50:30.890Z,100623.19
2023-02-22T12:58:04.311Z,100626.34
2023-02-22T13:01:06.607Z,100624.80
2023-02-22T13:03:56.788Z,100626.43
2023-02-22T13:07:36.834Z,100628.05
2023-02-22T13:11:06.181Z,100626.70
2023-02-22T13:14:58.944Z,100621.73
2023-02-22T13:18:30.002Z,100619.41
2023-02-22T13:32:17.821Z,100619.56
2023-02-22T13:51:47.397Z,100625.82
2023-02-22T13:55:02.808Z,100627.89
2023-02-22T13:58:07.206Z,100628.73
2023-02-22T14:01:15.054Z,100632.98
2023-02-22T14:04:40.666Z,100631.72
2023-02-22T14:08:00.163Z,100631.95
2023-02-22T14:19:12.666Z,100640.94
2023-02-22T14:22:11.443Z,100635.52
2023-02-22T14:25:27.808Z,100635.14
2023-02-22T14:29:29.673Z,100639.77
2023-02-22T14:32:40.258Z,100643.02
2023-02-22T14:36:27.307Z,100638.01
2023-02-22T14:39:36.542Z,100640.34
2023-02-22T14:42:49.697Z,100635.19
2023-02-22T14:50:00.203Z,100641.91
2023-02-22T14:53:04.679Z,100638.38
2023-02-22T14:56:34.841Z,100636.98
2023-02-22T15:00:47.162Z,100634.74
2023-02-22T15:04:07.276Z,100635.67
2023-02-22T15:08:28.723Z,100632.83
2023-02-22T15:11:56.038Z,100631.80
2023-02-22T15:19:17.491Z,100629.95
2023-02-22T15:30:34.173Z,100620.15
2023-02-22T15:34:27.861Z,100620.42
2023-02-22T15:38:08.925Z,100621.52
2023-02-22T15:45:51.935Z,100633.72
2023-02-22T15:50:26.597Z,100629.38
2023-02-22T15:53:33.032Z,100623.27
2023-02-22T17:17:13.705Z,100668.89
2023-02-22T17:24:56.985Z,100676.90
2023-02-22T18:42:33.613Z,100715.81
2023-02-22T18:50:43.230Z,100716.67
2023-02-22T19:06:06.224Z,100715.40
2023-02-22T19:13:16.557Z,100715.18
2023-02-22T19:21:28.268Z,100713.92
2023-02-22T19:24:52.392Z,100708.41
2023-02-22T20:32:22.745Z,100723.23
2023-02-22T20:35:20.989Z,100718.05
2023-02-22T20:41:50.706Z,100717.31
2023-02-22T21:21:14.764Z,100711.46
2023-02-22T21:46:29.580Z,100693.02
2023-02-22T22:03:34.774Z,100688.41
2023-02-22T22:11:21.033Z,100684.21
2023-02-22T22:14:37.681Z,100685.53
2023-02-22T22:18:08.621Z,100683.80
2023-02-22T22:21:34.070Z,100683.80
2023-02-22T22:24:46.081Z,100680.20
2023-02-22T22:27:56.022Z,100681.58
2023-02-22T22:31:23.522Z,100680.35
2023-02-22T22:34:29.331Z,100679.64
2023-02-22T22:37:19.333Z,100681.88
2023-02-22T22:40:52.322Z,100675.17
2023-02-22T22:43:42.583Z,100676.35
2023-02-22T22:46:31.125Z,100676.69
2023-02-22T22:49:53.280Z,100678.40
2023-02-22T22:52:44.511Z,100677.70
2023-02-22T22:55:52.978Z,100676.31
2023-02-22T22:58:48.886Z,100674.59
2023-02-22T23:01:50.291Z,100674.41
2023-02-22T23:04:50.903Z,100678.34
2023-02-22T23:07:50.966Z,100678.69
2023-02-22T23:11:32.534Z,100677.30
2023-02-22T23:14:43.757Z,100673.86
2023-02-22T23:17:44.147Z,100672.13
2023-02-22T23:20:39.857Z,100675.03
2023-02-22T23:23:55.646Z,100675.56
2023-02-22T23:27:28.831Z,100672.65
2023-02-22T23:30:34.873Z,100672.29
2023-02-22T23:33:38.647Z,100676.39
2023-02-22T23:36:36.735Z,100671.44
2023-02-22T23:39:24.810Z,100672.64
2023-02-22T23:42:25.465Z,100676.22
2023-02-22T23:45:27.457Z,100674.00
2023-02-22T23:48:26.227Z,100674.51
2023-02-22T23:51:11.585Z,100673.51
2023-02-22T23:54:13.885Z,100670.62
2023-02-22T23:57:00.484Z,100665.64
2023-02-22T23:59:41.451Z,100664.09
